sensor_id;sensor_type;location;lat;lon;timestamp;temperature;humidity
15288;DHT22;7745;48.708;9.026;2022-09-25T00:00:48;12.20;99.90
15288;DHT22;7745;48.708;9.026;2022-09-25T00:03:20;12.10;99.90
15288;DHT22;7745;48.708;9.026;2022-09-25T00:05:50;12.00;99.90
15288;DHT22;7745;48.708;9.026;2022-09-25T00:08:23;12.40;99.90
15288;DHT22;7745;48.708;9.026;2022-09-25T00:10:56;12.20;99.90
15288;DHT22;7745;48.708;9.026;2022-09-25T00:13:32;12.20;99.90
15288;DHT22;7745;48.708;9.026;2022-09-25T00:16:06;12.10;99.90
15288;DHT22;7745;48.708;9.026;2022-09-25T00:18:38;12.20;99.90
15288;DHT22;7745;48.708;9.026;2022-09-25T00:21:24;12.20;99.90
15288;DHT22;7745;48.708;9.026;2022-09-25T00:23:58;12.20;99.90
15288;DHT22;7745;48.708;9.026;2022-09-25T00:26:33;12.20;99.90
15288;DHT22;7745;48.708;9.026;2022-09-25T00:29:02;12.10;99.90
15288;DHT22;7745;48.708;9.026;2022-09-25T00:31:33;12.20;99.90
15288;DHT22;7745;48.708;9.026;2022-09-25T00:34:02;12.20;99.90
15288;DHT22;7745;48.708;9.026;2022-09-25T00:36:34;12.10;99.90
15288;DHT22;7745;48.708;9.026;2022-09-25T00:39:06;12.20;99.90
15288;DHT22;7745;48.708;9.026;2022-09-25T00:41:34;12.20;99.90
15288;DHT22;7745;48.708;9.026;2022-09-25T00:47:13;12.20;99.90
15288;DHT22;7745;48.708;9.026;2022-09-25T00:49:43;12.40;99.90
15288;DHT22;7745;48.708;9.026;2022-09-25T00:52:16;12.20;99.90
15288;DHT22;7745;48.708;9.026;2022-09-25T00:54:46;12.20;99.90
15288;DHT22;7745;48.708;9.026;2022-09-25T00:57:22;12.20;99.90
15288;DHT22;7745;48.708;9.026;2022-09-25T00:59:55;12.20;99.90
15288;DHT22;7745;48.708;9.026;2022-09-25T01:02:27;12.10;99.90
15288;DHT22;7745;48.708;9.026;2022-09-25T01:04:59;12.20;99.90
15288;DHT22;7745;48.708;9.026;2022-09-25T01:07:33;12.10;99.90
15288;DHT22;7745;48.708;9.026;2022-09-25T01:10:03;12.20;99.90
15288;DHT22;7745;48.708;9.026;2022-09-25T01:12:34;12.10;99.90
15288;DHT22;7745;48.708;9.026;2022-09-25T01:15:08;12.20;99.90
15288;DHT22;7745;48.708;9.026;2022-09-25T01:17:48;12.10;99.90
15288;DHT22;7745;48.708;9.026;2022-09-25T01:20:28;12.20;99.90
15288;DHT22;7745;48.708;9.026;2022-09-25T01:23:15;12.20;99.90
15288;DHT22;7745;48.708;9.026;2022-09-25T01:25:58;12.10;99.90
15288;DHT22;7745;48.708;9.026;2022-09-25T01:28:58;12.10;99.90
15288;DHT22;7745;48.708;9.026;2022-09-25T01:31:32;12.10;99.90
15288;DHT22;7745;48.708;9.026;2022-09-25T01:34:04;12.10;99.90
15288;DHT22;7745;48.708;9.026;2022-09-25T01:36:40;12.30;99.90
15288;DHT22;7745;48.708;9.026;2022-09-25T01:39:15;12.30;99.90
15288;DHT22;7745;48.708;9.026;2022-09-25T01:41:51;12.10;99.90
15288;DHT22;7745;48.708;9.026;2022-09-25T01:44:29;12.20;99.90
15288;DHT22;7745;48.708;9.026;2022-09-25T01:47:02;12.00;99.90
15288;DHT22;7745;48.708;9.026;2022-09-25T01:49:37;12.30;99.90
15288;DHT22;7745;48.708;9.026;2022-09-25T01:52:19;12.20;99.90
15288;DHT22;7745;48.708;9.026;2022-09-25T01:54:57;12.20;99.90
15288;DHT22;7745;48.708;9.026;2022-09-25T01:57:30;12.20;99.90
15288;DHT22;7745;48.708;9.026;2022-09-25T02:00:10;12.20;99.90
15288;DHT22;7745;48.708;9.026;2022-09-25T02:02:43;12.10;99.90
15288;DHT22;7745;48.708;9.026;2022-09-25T02:05:18;12.20;99.90
15288;DHT22;7745;48.708;9.026;2022-09-25T02:07:54;12.10;99.90
15288;DHT22;7745;48.708;9.026;2022-09-25T02:10:29;12.20;99.90
15288;DHT22;7745;48.708;9.026;2022-09-25T02:13:09;12.10;99.90
15288;DHT22;7745;48.708;9.026;2022-09-25T02:15:42;12.20;99.90
15288;DHT22;7745;48.708;9.026;2022-09-25T02:18:17;12.10;99.90
15288;DHT22;7745;48.708;9.026;2022-09-25T02:21:16;12.10;99.90
15288;DHT22;7745;48.708;9.026;2022-09-25T02:23:51;12.10;99.90
15288;DHT22;7745;48.708;9.026;2022-09-25T02:26:25;12.10;99.90
15288;DHT22;7745;48.708;9.026;2022-09-25T02:28:54;12.10;99.90
15288;DHT22;7745;48.708;9.026;2022-09-25T02:31:27;12.10;99.90
15288;DHT22;7745;48.708;9.026;2022-09-25T02:33:55;12.20;99.90
15288;DHT22;7745;48.708;9.026;2022-09-25T02:36:29;12.20;99.90
15288;DHT22;7745;48.708;9.026;2022-09-25T02:38:59;12.10;99.90
15288;DHT22;7745;48.708;9.026;2022-09-25T02:41:45;12.10;99.90
15288;DHT22;7745;48.708;9.026;2022-09-25T02:44:25;12.10;99.90
15288;DHT22;7745;48.708;9.026;2022-09-25T02:47:11;12.10;99.90
15288;DHT22;7745;48.708;9.026;2022-09-25T02:49:48;12.10;99.90
15288;DHT22;7745;48.708;9.026;2022-09-25T02:52:21;12.30;99.90
15288;DHT22;7745;48.708;9.026;2022-09-25T02:55:01;12.20;99.90
15288;DHT22;7745;48.708;9.026;2022-09-25T02:57:35;12.10;99.90
15288;DHT22;7745;48.708;9.026;2022-09-25T03:00:06;12.20;99.90
15288;DHT22;7745;48.708;9.026;2022-09-25T03:02:40;12.10;99.90
15288;DHT22;7745;48.708;9.026;2022-09-25T03:05:10;12.10;99.90
15288;DHT22;7745;48.708;9.026;2022-09-25T03:07:39;12.10;99.90
15288;DHT22;7745;48.708;9.026;2022-09-25T03:10:24;12.10;99.90
15288;DHT22;7745;48.708;9.026;2022-09-25T03:12:52;12.20;99.90
15288;DHT22;7745;48.708;9.026;2022-09-25T03:15:21;12.30;99.90
15288;DHT22;7745;48.708;9.026;2022-09-25T03:17:51;12.20;99.90
15288;DHT22;7745;48.708;9.026;2022-09-25T03:20:18;12.20;99.90
15288;DHT22;7745;48.708;9.026;2022-09-25T03:22:51;12.00;99.90
15288;DHT22;7745;48.708;9.026;2022-09-25T03:25:23;12.20;99.90
15288;DHT22;7745;48.708;9.026;2022-09-25T03:27:52;12.10;99.90
15288;DHT22;7745;48.708;9.026;2022-09-25T03:30:21;12.10;99.90
15288;DHT22;7745;48.708;9.026;2022-09-25T03:32:53;12.10;99.90
15288;DHT22;7745;48.708;9.026;2022-09-25T03:35:23;12.10;99.90
15288;DHT22;7745;48.708;9.026;2022-09-25T03:37:54;12.20;99.90
15288;DHT22;7745;48.708;9.026;2022-09-25T03:40:25;12.10;99.90
15288;DHT22;7745;48.708;9.026;2022-09-25T03:42:57;12.10;99.90
15288;DHT22;7745;48.708;9.026;2022-09-25T03:45:28;12.10;99.90
15288;DHT22;7745;48.708;9.026;2022-09-25T03:48:00;12.10;99.90
15288;DHT22;7745;48.708;9.026;2022-09-25T03:50:30;12.00;99.90
15288;DHT22;7745;48.708;9.026;2022-09-25T03:52:59;12.00;99.90
15288;DHT22;7745;48.708;9.026;2022-09-25T03:55:25;12.10;99.90
15288;DHT22;7745;48.708;9.026;2022-09-25T03:57:58;12.20;99.90
15288;DHT22;7745;48.708;9.026;2022-09-25T04:00:27;12.10;99.90
15288;DHT22;7745;48.708;9.026;2022-09-25T04:02:57;12.00;99.90
15288;DHT22;7745;48.708;9.026;2022-09-25T04:05:27;12.00;99.90
15288;DHT22;7745;48.708;9.026;2022-09-25T04:07:59;12.30;99.90
15288;DHT22;7745;48.708;9.026;2022-09-25T04:10:29;12.00;99.90
15288;DHT22;7745;48.708;9.026;2022-09-25T04:12:57;12.00;99.90
15288;DHT22;7745;48.708;9.026;2022-09-25T04:15:30;12.00;99.90
15288;DHT22;7745;48.708;9.026;2022-09-25T04:18:02;12.00;99.90
15288;DHT22;7745;48.708;9.026;2022-09-25T04:20:32;12.00;99.90
15288;DHT22;7745;48.708;9.026;2022-09-25T04:23:04;12.00;99.90
15288;DHT22;7745;48.708;9.026;2022-09-25T04:25:36;12.10;99.90
15288;DHT22;7745;48.708;9.026;2022-09-25T04:28:04;12.00;99.90
15288;DHT22;7745;48.708;9.026;2022-09-25T04:31:39;12.20;99.90
15288;DHT22;7745;48.708;9.026;2022-09-25T04:34:00;12.00;99.90
15288;DHT22;7745;48.708;9.026;2022-09-25T04:36:36;12.00;99.90
15288;DHT22;7745;48.708;9.026;2022-09-25T04:39:08;12.00;99.90
15288;DHT22;7745;48.708;9.026;2022-09-25T04:41:42;12.00;99.90
15288;DHT22;7745;48.708;9.026;2022-09-25T04:44:16;12.00;99.90
15288;DHT22;7745;48.708;9.026;2022-09-25T04:46:46;12.30;99.90
15288;DHT22;7745;48.708;9.026;2022-09-25T04:49:19;12.10;99.90
15288;DHT22;7745;48.708;9.026;2022-09-25T04:51:53;12.00;99.90
15288;DHT22;7745;48.708;9.026;2022-09-25T04:54:30;12.00;99.90
15288;DHT22;7745;48.708;9.026;2022-09-25T04:56:59;12.10;99.90
15288;DHT22;7745;48.708;9.026;2022-09-25T04:59:34;12.10;99.90
15288;DHT22;7745;48.708;9.026;2022-09-25T05:02:12;12.10;99.90
15288;DHT22;7745;48.708;9.026;2022-09-25T05:04:45;12.10;99.90
15288;DHT22;7745;48.708;9.026;2022-09-25T05:07:23;12.00;99.90
15288;DHT22;7745;48.708;9.026;2022-09-25T05:09:56;12.10;99.90
15288;DHT22;7745;48.708;9.026;2022-09-25T05:12:28;12.10;99.90
15288;DHT22;7745;48.708;9.026;2022-09-25T05:14:55;11.90;99.90
15288;DHT22;7745;48.708;9.026;2022-09-25T05:17:30;12.10;99.90
15288;DHT22;7745;48.708;9.026;2022-09-25T05:20:02;12.00;99.90
15288;DHT22;7745;48.708;9.026;2022-09-25T05:22:32;12.00;99.90
15288;DHT22;7745;48.708;9.026;2022-09-25T05:25:06;11.80;99.90
15288;DHT22;7745;48.708;9.026;2022-09-25T05:27:38;12.10;99.90
15288;DHT22;7745;48.708;9.026;2022-09-25T05:30:08;12.20;99.90
15288;DHT22;7745;48.708;9.026;2022-09-25T05:32:38;12.00;99.90
15288;DHT22;7745;48.708;9.026;2022-09-25T05:35:07;12.00;99.90
15288;DHT22;7745;48.708;9.026;2022-09-25T05:37:40;12.00;99.90
15288;DHT22;7745;48.708;9.026;2022-09-25T05:40:19;12.00;99.90
15288;DHT22;7745;48.708;9.026;2022-09-25T05:42:50;12.00;99.90
15288;DHT22;7745;48.708;9.026;2022-09-25T05:48:26;11.90;99.90
15288;DHT22;7745;48.708;9.026;2022-09-25T05:50:54;12.10;99.90
15288;DHT22;7745;48.708;9.026;2022-09-25T05:53:23;12.00;99.90
15288;DHT22;7745;48.708;9.026;2022-09-25T05:55:52;12.00;99.90
15288;DHT22;7745;48.708;9.026;2022-09-25T05:58:19;12.00;99.90
15288;DHT22;7745;48.708;9.026;2022-09-25T06:00:47;12.00;99.90
15288;DHT22;7745;48.708;9.026;2022-09-25T06:03:14;12.00;99.90
15288;DHT22;7745;48.708;9.026;2022-09-25T06:05:41;12.00;99.90
15288;DHT22;7745;48.708;9.026;2022-09-25T06:08:11;12.10;99.90
15288;DHT22;7745;48.708;9.026;2022-09-25T06:10:40;12.10;99.90
15288;DHT22;7745;48.708;9.026;2022-09-25T06:13:07;12.30;99.90
15288;DHT22;7745;48.708;9.026;2022-09-25T06:15:35;12.00;99.90
15288;DHT22;7745;48.708;9.026;2022-09-25T06:18:03;12.20;99.90
15288;DHT22;7745;48.708;9.026;2022-09-25T06:20:38;12.00;99.90
15288;DHT22;7745;48.708;9.026;2022-09-25T06:23:15;12.00;99.90
15288;DHT22;7745;48.708;9.026;2022-09-25T06:25:44;12.20;99.90
15288;DHT22;7745;48.708;9.026;2022-09-25T06:28:11;12.00;99.90
15288;DHT22;7745;48.708;9.026;2022-09-25T06:30:37;12.10;99.90
15288;DHT22;7745;48.708;9.026;2022-09-25T06:33:06;12.10;99.90
15288;DHT22;7745;48.708;9.026;2022-09-25T06:35:34;12.10;99.90
15288;DHT22;7745;48.708;9.026;2022-09-25T06:38:02;12.20;99.90
15288;DHT22;7745;48.708;9.026;2022-09-25T06:40:30;12.20;99.90
15288;DHT22;7745;48.708;9.026;2022-09-25T06:43:00;12.20;99.90
15288;DHT22;7745;48.708;9.026;2022-09-25T06:45:28;12.20;99.90
15288;DHT22;7745;48.708;9.026;2022-09-25T06:47:59;12.30;99.90
15288;DHT22;7745;48.708;9.026;2022-09-25T06:50:30;12.20;99.90
15288;DHT22;7745;48.708;9.026;2022-09-25T06:53:00;12.40;99.90
15288;DHT22;7745;48.708;9.026;2022-09-25T06:55:28;12.30;99.90
15288;DHT22;7745;48.708;9.026;2022-09-25T06:57:58;12.40;99.90
15288;DHT22;7745;48.708;9.026;2022-09-25T07:00:24;12.40;99.90
15288;DHT22;7745;48.708;9.026;2022-09-25T07:02:51;12.40;99.90
15288;DHT22;7745;48.708;9.026;2022-09-25T07:05:36;12.40;99.90
15288;DHT22;7745;48.708;9.026;2022-09-25T07:08:03;12.40;99.90
15288;DHT22;7745;48.708;9.026;2022-09-25T07:10:30;12.50;99.90
15288;DHT22;7745;48.708;9.026;2022-09-25T07:13:00;12.60;99.90
15288;DHT22;7745;48.708;9.026;2022-09-25T07:15:29;12.60;99.90
15288;DHT22;7745;48.708;9.026;2022-09-25T07:17:58;12.60;99.90
15288;DHT22;7745;48.708;9.026;2022-09-25T07:20:24;12.60;99.90
15288;DHT22;7745;48.708;9.026;2022-09-25T07:22:51;12.60;99.90
15288;DHT22;7745;48.708;9.026;2022-09-25T07:25:19;12.70;99.90
15288;DHT22;7745;48.708;9.026;2022-09-25T07:27:46;12.60;99.90
15288;DHT22;7745;48.708;9.026;2022-09-25T07:30:36;12.60;99.90
15288;DHT22;7745;48.708;9.026;2022-09-25T07:33:07;12.60;99.90
15288;DHT22;7745;48.708;9.026;2022-09-25T07:35:37;12.70;99.90
15288;DHT22;7745;48.708;9.026;2022-09-25T07:38:05;12.60;99.90
15288;DHT22;7745;48.708;9.026;2022-09-25T07:40:32;12.70;99.90
15288;DHT22;7745;48.708;9.026;2022-09-25T07:43:00;12.80;99.90
15288;DHT22;7745;48.708;9.026;2022-09-25T07:45:27;12.80;99.90
15288;DHT22;7745;48.708;9.026;2022-09-25T07:47:56;12.80;99.90
15288;DHT22;7745;48.708;9.026;2022-09-25T07:50:26;12.90;99.90
15288;DHT22;7745;48.708;9.026;2022-09-25T07:52:58;12.90;99.90
15288;DHT22;7745;48.708;9.026;2022-09-25T07:55:30;12.90;99.90
15288;DHT22;7745;48.708;9.026;2022-09-25T07:57:58;13.00;99.90
15288;DHT22;7745;48.708;9.026;2022-09-25T08:00:27;13.00;99.90
15288;DHT22;7745;48.708;9.026;2022-09-25T08:02:58;13.00;99.90
15288;DHT22;7745;48.708;9.026;2022-09-25T08:05:25;13.10;99.90
15288;DHT22;7745;48.708;9.026;2022-09-25T08:07:52;13.10;99.90
15288;DHT22;7745;48.708;9.026;2022-09-25T08:10:19;13.20;99.90
15288;DHT22;7745;48.708;9.026;2022-09-25T08:12:46;13.20;99.90
15288;DHT22;7745;48.708;9.026;2022-09-25T08:15:17;13.30;99.90
15288;DHT22;7745;48.708;9.026;2022-09-25T08:17:43;13.30;99.90
15288;DHT22;7745;48.708;9.026;2022-09-25T08:20:11;13.40;99.90
15288;DHT22;7745;48.708;9.026;2022-09-25T08:22:38;13.50;99.90
15288;DHT22;7745;48.708;9.026;2022-09-25T08:25:06;13.50;99.90
15288;DHT22;7745;48.708;9.026;2022-09-25T08:27:34;13.50;99.90
15288;DHT22;7745;48.708;9.026;2022-09-25T08:30:06;13.60;99.90
15288;DHT22;7745;48.708;9.026;2022-09-25T08:32:33;13.60;99.90
15288;DHT22;7745;48.708;9.026;2022-09-25T08:35:01;13.60;99.90
15288;DHT22;7745;48.708;9.026;2022-09-25T08:37:29;13.60;99.90
15288;DHT22;7745;48.708;9.026;2022-09-25T08:39:56;13.60;99.90
15288;DHT22;7745;48.708;9.026;2022-09-25T08:42:26;13.80;99.90
15288;DHT22;7745;48.708;9.026;2022-09-25T08:44:57;13.70;99.90
15288;DHT22;7745;48.708;9.026;2022-09-25T08:47:39;13.80;99.90
15288;DHT22;7745;48.708;9.026;2022-09-25T08:50:22;14.00;99.90
15288;DHT22;7745;48.708;9.026;2022-09-25T08:52:54;13.90;99.90
15288;DHT22;7745;48.708;9.026;2022-09-25T08:55:25;14.00;99.90
15288;DHT22;7745;48.708;9.026;2022-09-25T08:58:19;14.00;99.90
15288;DHT22;7745;48.708;9.026;2022-09-25T09:00:48;14.10;99.90
15288;DHT22;7745;48.708;9.026;2022-09-25T09:03:15;14.20;99.90
15288;DHT22;7745;48.708;9.026;2022-09-25T09:05:44;14.20;99.90
15288;DHT22;7745;48.708;9.026;2022-09-25T09:08:16;14.20;99.90
15288;DHT22;7745;48.708;9.026;2022-09-25T09:10:49;14.30;99.90
15288;DHT22;7745;48.708;9.026;2022-09-25T09:13:22;14.40;99.90
15288;DHT22;7745;48.708;9.026;2022-09-25T09:15:54;14.40;99.90
15288;DHT22;7745;48.708;9.026;2022-09-25T09:18:24;14.40;99.90
15288;DHT22;7745;48.708;9.026;2022-09-25T09:20:53;14.50;99.90
15288;DHT22;7745;48.708;9.026;2022-09-25T09:23:22;14.50;99.90
15288;DHT22;7745;48.708;9.026;2022-09-25T09:25:58;14.40;99.90
15288;DHT22;7745;48.708;9.026;2022-09-25T09:31:43;14.30;99.90
15288;DHT22;7745;48.708;9.026;2022-09-25T09:34:34;14.50;99.90
15288;DHT22;7745;48.708;9.026;2022-09-25T09:37:08;14.40;99.90
15288;DHT22;7745;48.708;9.026;2022-09-25T09:39:55;14.40;99.90
15288;DHT22;7745;48.708;9.026;2022-09-25T09:42:28;14.50;99.90
15288;DHT22;7745;48.708;9.026;2022-09-25T09:45:05;14.50;99.90
15288;DHT22;7745;48.708;9.026;2022-09-25T09:47:41;14.60;99.90
15288;DHT22;7745;48.708;9.026;2022-09-25T09:50:23;14.70;99.90
15288;DHT22;7745;48.708;9.026;2022-09-25T09:52:57;14.90;99.90
15288;DHT22;7745;48.708;9.026;2022-09-25T09:55:35;15.00;99.90
15288;DHT22;7745;48.708;9.026;2022-09-25T09:58:08;15.00;99.90
15288;DHT22;7745;48.708;9.026;2022-09-25T10:00:38;15.00;99.90
15288;DHT22;7745;48.708;9.026;2022-09-25T10:03:17;15.10;99.90
15288;DHT22;7745;48.708;9.026;2022-09-25T10:05:47;15.10;99.90
15288;DHT22;7745;48.708;9.026;2022-09-25T10:08:14;15.00;99.90
15288;DHT22;7745;48.708;9.026;2022-09-25T10:10:45;15.00;99.90
15288;DHT22;7745;48.708;9.026;2022-09-25T10:13:16;15.10;99.90
15288;DHT22;7745;48.708;9.026;2022-09-25T10:15:48;14.90;99.90
15288;DHT22;7745;48.708;9.026;2022-09-25T10:18:17;14.90;99.90
15288;DHT22;7745;48.708;9.026;2022-09-25T10:20:50;14.90;99.90
15288;DHT22;7745;48.708;9.026;2022-09-25T10:23:40;14.90;99.90
15288;DHT22;7745;48.708;9.026;2022-09-25T10:26:25;14.90;99.90
15288;DHT22;7745;48.708;9.026;2022-09-25T10:28:53;14.80;99.90
15288;DHT22;7745;48.708;9.026;2022-09-25T10:31:26;14.90;99.90
15288;DHT22;7745;48.708;9.026;2022-09-25T10:33:59;14.70;99.90
15288;DHT22;7745;48.708;9.026;2022-09-25T10:36:40;14.80;99.90
15288;DHT22;7745;48.708;9.026;2022-09-25T10:39:35;14.50;99.90
15288;DHT22;7745;48.708;9.026;2022-09-25T10:44:55;14.40;99.90
15288;DHT22;7745;48.708;9.026;2022-09-25T10:47:30;14.50;99.90
15288;DHT22;7745;48.708;9.026;2022-09-25T10:50:17;14.50;99.90
15288;DHT22;7745;48.708;9.026;2022-09-25T10:52:46;14.50;99.90
15288;DHT22;7745;48.708;9.026;2022-09-25T10:55:21;14.60;99.90
15288;DHT22;7745;48.708;9.026;2022-09-25T10:57:58;14.70;99.90
15288;DHT22;7745;48.708;9.026;2022-09-25T11:00:28;14.80;99.90
15288;DHT22;7745;48.708;9.026;2022-09-25T11:03:00;14.90;99.90
15288;DHT22;7745;48.708;9.026;2022-09-25T11:05:30;15.00;99.90
15288;DHT22;7745;48.708;9.026;2022-09-25T11:07:59;15.00;99.90
15288;DHT22;7745;48.708;9.026;2022-09-25T11:10:29;14.90;99.90
15288;DHT22;7745;48.708;9.026;2022-09-25T11:12:57;14.90;99.90
15288;DHT22;7745;48.708;9.026;2022-09-25T11:15:26;14.90;99.90
15288;DHT22;7745;48.708;9.026;2022-09-25T11:17:55;14.90;99.90
15288;DHT22;7745;48.708;9.026;2022-09-25T11:20:25;14.90;99.90
15288;DHT22;7745;48.708;9.026;2022-09-25T11:23:24;15.00;99.90
15288;DHT22;7745;48.708;9.026;2022-09-25T11:25:57;15.10;99.90
15288;DHT22;7745;48.708;9.026;2022-09-25T11:28:31;15.10;99.90
15288;DHT22;7745;48.708;9.026;2022-09-25T11:31:06;15.10;99.90
15288;DHT22;7745;48.708;9.026;2022-09-25T11:33:41;15.00;99.90
15288;DHT22;7745;48.708;9.026;2022-09-25T11:36:16;14.80;99.90
15288;DHT22;7745;48.708;9.026;2022-09-25T11:38:46;14.60;99.90
15288;DHT22;7745;48.708;9.026;2022-09-25T11:41:36;14.40;99.90
15288;DHT22;7745;48.708;9.026;2022-09-25T11:44:14;14.30;99.90
15288;DHT22;7745;48.708;9.026;2022-09-25T11:46:49;14.20;99.90
15288;DHT22;7745;48.708;9.026;2022-09-25T11:49:21;14.20;99.90
15288;DHT22;7745;48.708;9.026;2022-09-25T11:54:55;14.10;99.90
15288;DHT22;7745;48.708;9.026;2022-09-25T11:57:32;14.10;99.90
15288;DHT22;7745;48.708;9.026;2022-09-25T12:00:07;14.00;99.90
15288;DHT22;7745;48.708;9.026;2022-09-25T12:02:51;14.00;99.90
15288;DHT22;7745;48.708;9.026;2022-09-25T12:05:35;14.10;99.90
15288;DHT22;7745;48.708;9.026;2022-09-25T12:08:20;14.20;99.90
15288;DHT22;7745;48.708;9.026;2022-09-25T12:10:55;14.20;99.90
15288;DHT22;7745;48.708;9.026;2022-09-25T12:13:33;14.20;99.90
15288;DHT22;7745;48.708;9.026;2022-09-25T12:16:14;14.30;99.90
15288;DHT22;7745;48.708;9.026;2022-09-25T12:18:56;14.30;99.90
15288;DHT22;7745;48.708;9.026;2022-09-25T12:21:31;14.40;99.90
15288;DHT22;7745;48.708;9.026;2022-09-25T12:24:04;14.40;99.90
15288;DHT22;7745;48.708;9.026;2022-09-25T12:26:40;14.50;99.90
15288;DHT22;7745;48.708;9.026;2022-09-25T12:29:17;14.60;99.90
15288;DHT22;7745;48.708;9.026;2022-09-25T12:31:57;14.60;99.90
15288;DHT22;7745;48.708;9.026;2022-09-25T12:34:43;14.70;99.90
15288;DHT22;7745;48.708;9.026;2022-09-25T12:37:21;14.80;99.90
15288;DHT22;7745;48.708;9.026;2022-09-25T12:39:54;14.80;99.90
15288;DHT22;7745;48.708;9.026;2022-09-25T12:42:28;14.90;99.90
15288;DHT22;7745;48.708;9.026;2022-09-25T12:45:02;15.00;99.90
15288;DHT22;7745;48.708;9.026;2022-09-25T12:47:33;15.00;99.90
15288;DHT22;7745;48.708;9.026;2022-09-25T12:50:08;15.00;99.90
15288;DHT22;7745;48.708;9.026;2022-09-25T12:52:38;15.00;99.90
15288;DHT22;7745;48.708;9.026;2022-09-25T12:55:11;15.00;99.90
15288;DHT22;7745;48.708;9.026;2022-09-25T12:57:42;15.00;99.90
15288;DHT22;7745;48.708;9.026;2022-09-25T13:00:16;14.90;99.90
15288;DHT22;7745;48.708;9.026;2022-09-25T13:02:52;15.00;99.90
15288;DHT22;7745;48.708;9.026;2022-09-25T13:05:25;15.00;99.90
15288;DHT22;7745;48.708;9.026;2022-09-25T13:08:01;15.00;99.90
15288;DHT22;7745;48.708;9.026;2022-09-25T13:10:36;14.90;99.90
15288;DHT22;7745;48.708;9.026;2022-09-25T13:13:08;15.10;99.90
15288;DHT22;7745;48.708;9.026;2022-09-25T13:15:37;15.00;99.90
15288;DHT22;7745;48.708;9.026;2022-09-25T13:18:18;15.10;99.90
15288;DHT22;7745;48.708;9.026;2022-09-25T13:20:51;15.20;99.90
15288;DHT22;7745;48.708;9.026;2022-09-25T13:23:26;15.20;99.90
15288;DHT22;7745;48.708;9.026;2022-09-25T13:25:55;15.30;99.90
15288;DHT22;7745;48.708;9.026;2022-09-25T13:28:27;15.40;99.90
15288;DHT22;7745;48.708;9.026;2022-09-25T13:31:04;15.40;99.90
15288;DHT22;7745;48.708;9.026;2022-09-25T13:33:40;15.30;99.90
15288;DHT22;7745;48.708;9.026;2022-09-25T13:36:15;15.30;99.90
15288;DHT22;7745;48.708;9.026;2022-09-25T13:38:50;15.30;99.90
15288;DHT22;7745;48.708;9.026;2022-09-25T13:41:47;15.20;99.90
15288;DHT22;7745;48.708;9.026;2022-09-25T13:47:57;15.20;99.90
15288;DHT22;7745;48.708;9.026;2022-09-25T13:50:39;15.10;99.90
15288;DHT22;7745;48.708;9.026;2022-09-25T13:56:22;15.00;99.90
15288;DHT22;7745;48.708;9.026;2022-09-25T13:59:03;15.00;99.90
15288;DHT22;7745;48.708;9.026;2022-09-25T14:01:34;15.00;99.90
15288;DHT22;7745;48.708;9.026;2022-09-25T14:04:09;15.00;99.90
15288;DHT22;7745;48.708;9.026;2022-09-25T14:06:38;14.90;99.90
15288;DHT22;7745;48.708;9.026;2022-09-25T14:09:08;14.90;99.90
15288;DHT22;7745;48.708;9.026;2022-09-25T14:11:36;14.90;99.90
15288;DHT22;7745;48.708;9.026;2022-09-25T14:14:07;14.90;99.90
15288;DHT22;7745;48.708;9.026;2022-09-25T14:16:41;14.90;99.90
15288;DHT22;7745;48.708;9.026;2022-09-25T14:19:23;15.10;99.90
15288;DHT22;7745;48.708;9.026;2022-09-25T14:21:52;14.90;99.90
15288;DHT22;7745;48.708;9.026;2022-09-25T14:24:20;14.90;99.90
15288;DHT22;7745;48.708;9.026;2022-09-25T14:26:49;14.90;99.90
15288;DHT22;7745;48.708;9.026;2022-09-25T14:29:21;14.90;99.90
15288;DHT22;7745;48.708;9.026;2022-09-25T14:31:58;14.90;99.90
15288;DHT22;7745;48.708;9.026;2022-09-25T14:34:38;14.90;99.90
15288;DHT22;7745;48.708;9.026;2022-09-25T14:37:25;14.80;99.90
15288;DHT22;7745;48.708;9.026;2022-09-25T14:40:02;15.00;99.90
15288;DHT22;7745;48.708;9.026;2022-09-25T14:43:02;15.00;99.90
15288;DHT22;7745;48.708;9.026;2022-09-25T14:45:55;14.90;99.90
15288;DHT22;7745;48.708;9.026;2022-09-25T14:48:26;14.80;99.90
15288;DHT22;7745;48.708;9.026;2022-09-25T14:50:57;14.80;99.90
15288;DHT22;7745;48.708;9.026;2022-09-25T14:53:30;14.70;99.90
15288;DHT22;7745;48.708;9.026;2022-09-25T14:55:58;14.70;99.90
15288;DHT22;7745;48.708;9.026;2022-09-25T14:58:29;14.60;99.90
15288;DHT22;7745;48.708;9.026;2022-09-25T15:01:01;14.80;99.90
15288;DHT22;7745;48.708;9.026;2022-09-25T15:03:31;14.60;99.90
15288;DHT22;7745;48.708;9.026;2022-09-25T15:06:00;14.70;99.90
15288;DHT22;7745;48.708;9.026;2022-09-25T15:08:35;14.70;99.90
15288;DHT22;7745;48.708;9.026;2022-09-25T15:11:08;14.70;99.90
15288;DHT22;7745;48.708;9.026;2022-09-25T15:13:35;14.80;99.90
15288;DHT22;7745;48.708;9.026;2022-09-25T15:16:03;14.90;99.90
15288;DHT22;7745;48.708;9.026;2022-09-25T15:18:53;14.80;99.90
15288;DHT22;7745;48.708;9.026;2022-09-25T15:21:24;14.90;99.90
15288;DHT22;7745;48.708;9.026;2022-09-25T15:23:55;14.80;99.90
15288;DHT22;7745;48.708;9.026;2022-09-25T15:26:23;14.80;99.90
15288;DHT22;7745;48.708;9.026;2022-09-25T15:28:52;14.80;99.90
15288;DHT22;7745;48.708;9.026;2022-09-25T15:31:19;14.90;99.90
15288;DHT22;7745;48.708;9.026;2022-09-25T15:34:01;14.90;99.90
15288;DHT22;7745;48.708;9.026;2022-09-25T15:36:28;14.90;99.90
15288;DHT22;7745;48.708;9.026;2022-09-25T15:38:59;14.90;99.90
15288;DHT22;7745;48.708;9.026;2022-09-25T15:41:28;14.80;99.90
15288;DHT22;7745;48.708;9.026;2022-09-25T15:44:11;14.80;99.90
15288;DHT22;7745;48.708;9.026;2022-09-25T15:46:41;14.80;99.90
15288;DHT22;7745;48.708;9.026;2022-09-25T15:49:13;14.70;99.90
15288;DHT22;7745;48.708;9.026;2022-09-25T15:51:46;14.60;99.90
15288;DHT22;7745;48.708;9.026;2022-09-25T15:54:36;14.50;99.90
15288;DHT22;7745;48.708;9.026;2022-09-25T15:57:06;14.40;99.90
15288;DHT22;7745;48.708;9.026;2022-09-25T15:59:38;14.20;99.90
15288;DHT22;7745;48.708;9.026;2022-09-25T16:02:28;14.10;99.90
15288;DHT22;7745;48.708;9.026;2022-09-25T16:05:15;14.00;99.90
15288;DHT22;7745;48.708;9.026;2022-09-25T16:07:46;13.90;99.90
15288;DHT22;7745;48.708;9.026;2022-09-25T16:10:30;13.90;99.90
15288;DHT22;7745;48.708;9.026;2022-09-25T16:12:59;13.80;99.90
15288;DHT22;7745;48.708;9.026;2022-09-25T16:15:53;13.80;99.90
15288;DHT22;7745;48.708;9.026;2022-09-25T16:18:34;13.70;99.90
15288;DHT22;7745;48.708;9.026;2022-09-25T16:21:20;13.70;99.90
15288;DHT22;7745;48.708;9.026;2022-09-25T16:23:54;13.70;99.90
15288;DHT22;7745;48.708;9.026;2022-09-25T16:26:24;13.60;99.90
15288;DHT22;7745;48.708;9.026;2022-09-25T16:29:00;13.60;99.90
15288;DHT22;7745;48.708;9.026;2022-09-25T16:31:29;13.60;99.90
15288;DHT22;7745;48.708;9.026;2022-09-25T16:33:57;13.60;99.90
15288;DHT22;7745;48.708;9.026;2022-09-25T16:36:26;13.60;99.90
15288;DHT22;7745;48.708;9.026;2022-09-25T16:41:57;13.50;99.90
15288;DHT22;7745;48.708;9.026;2022-09-25T16:44:40;13.40;99.90
15288;DHT22;7745;48.708;9.026;2022-09-25T16:47:14;13.40;99.90
15288;DHT22;7745;48.708;9.026;2022-09-25T16:49:42;13.30;99.90